Time;durP1;ratioP1;P1;durP2;ratioP2;P2;SDS_P1;SDS_P2;PMS_P1;PMS_P2;Temp;Humidity;BMP_temperature;BMP_pressure;BME280_temperature;BME280_humidity;BME280_pressure;Samples;Min_cycle;Max_cycle;Signal;HPM_P1;HPM_P2
2023/04/12 00:02:18;;;;;;;11.13;2.97;;;8.60;1.00;;;;;;5029077;28;20207;-65
2023/04/12 00:04:53;;;;;;;5.17;2.83;;;8.60;1.00;;;;;;5047356;28;20233;-65
2023/04/12 00:07:22;;;;;;;10.60;2.93;;;8.60;1.00;;;;;;5032679;28;20647;-65
2023/04/12 00:09:50;;;;;;;10.20;2.80;;;8.70;1.00;;;;;;5010373;28;20281;-66
2023/04/12 00:12:18;;;;;;;8.77;2.73;;;8.60;1.00;;;;;;5025217;28;20337;-66
2023/04/12 00:14:45;;;;;;;7.03;2.67;;;8.70;1.00;;;;;;5021637;28;20238;-65
2023/04/12 00:17:12;;;;;;;9.00;2.80;;;8.70;1.00;;;;;;5041497;28;20602;-65
2023/04/12 00:19:40;;;;;;;6.30;2.30;;;8.60;1.00;;;;;;5044765;28;20203;-66
2023/04/12 00:22:11;;;;;;;8.00;2.43;;;8.60;1.00;;;;;;5025714;28;20262;-66
2023/04/12 00:24:39;;;;;;;7.70;2.97;;;8.60;1.00;;;;;;5028866;28;20583;-64
2023/04/12 00:27:07;;;;;;;8.20;3.03;;;8.60;1.00;;;;;;5008652;28;20620;-64
2023/04/12 00:29:35;;;;;;;6.93;2.40;;;8.50;1.00;;;;;;5046871;28;20203;-64
2023/04/12 00:32:04;;;;;;;10.80;2.70;;;8.50;1.00;;;;;;5032230;28;20648;-64
2023/04/12 00:34:31;;;;;;;7.63;2.70;;;8.50;1.00;;;;;;5031496;28;20211;-64
2023/04/12 00:36:59;;;;;;;5.60;2.20;;;8.60;1.00;;;;;;5027668;28;20215;-64
2023/04/12 00:39:26;;;;;;;6.73;2.80;;;8.60;1.00;;;;;;5040833;28;20576;-64
2023/04/12 00:41:56;;;;;;;6.87;2.10;;;8.50;1.00;;;;;;5026082;28;20188;-67
2023/04/12 00:44:23;;;;;;;9.63;2.90;;;8.60;1.00;;;;;;5037149;28;20265;-65
2023/04/12 00:46:51;;;;;;;5.80;2.17;;;8.60;1.00;;;;;;5042077;28;20196;-68
2023/04/12 00:49:18;;;;;;;6.63;2.23;;;8.60;1.00;;;;;;5023852;28;20196;-65
2023/04/12 00:51:45;;;;;;;10.27;2.60;;;8.60;1.00;;;;;;5025398;28;20203;-65
2023/04/12 00:54:13;;;;;;;4.27;2.10;;;8.60;1.00;;;;;;5029170;28;20239;-65
2023/04/12 00:56:40;;;;;;;6.40;2.20;;;8.60;1.00;;;;;;5029807;28;20196;-66
2023/04/12 00:59:07;;;;;;;8.57;2.20;;;8.70;1.00;;;;;;5030342;28;20199;-65
2023/04/12 01:01:34;;;;;;;5.90;2.40;;;8.60;1.00;;;;;;5028321;28;20251;-65
2023/04/12 01:04:03;;;;;;;7.03;2.30;;;8.70;1.00;;;;;;5011268;28;20220;-65
2023/04/12 01:06:47;;;;;;;8.50;2.07;;;8.70;1.00;;;;;;5045024;28;20183;-66
2023/04/12 01:09:15;;;;;;;10.60;3.17;;;8.70;1.00;;;;;;5028028;28;20279;-65
2023/04/12 01:12:11;;;;;;;7.63;2.73;;;8.70;1.00;;;;;;5045073;28;20606;-70
2023/04/12 01:14:46;;;;;;;5.17;2.23;;;8.70;1.00;;;;;;5024859;28;20215;-65
2023/04/12 01:17:23;;;;;;;8.13;2.20;;;8.70;1.00;;;;;;5029353;28;20205;-65
2023/04/12 01:20:11;;;;;;;7.20;2.30;;;8.70;1.00;;;;;;5025234;28;20652;-64
2023/04/12 01:23:00;;;;;;;8.13;2.53;;;8.70;1.00;;;;;;5027582;28;20654;-67
2023/04/12 01:25:38;;;;;;;6.10;2.37;;;8.70;1.00;;;;;;5011148;28;20199;-65
2023/04/12 01:28:10;;;;;;;7.43;2.43;;;8.70;1.00;;;;;;5009762;28;20195;-65
2023/04/12 01:30:39;;;;;;;7.03;2.43;;;8.70;1.00;;;;;;5037605;28;20191;-65
2023/04/12 01:33:10;;;;;;;7.97;2.43;;;8.70;1.00;;;;;;5027484;28;20254;-64
2023/04/12 01:35:39;;;;;;;6.10;2.00;;;8.70;1.00;;;;;;5031504;28;20579;-65
2023/04/12 01:38:08;;;;;;;7.07;2.43;;;8.80;1.00;;;;;;5017843;28;20185;-65
2023/04/12 01:40:39;;;;;;;9.47;2.60;;;8.80;1.00;;;;;;5053404;28;20180;-70
2023/04/12 01:43:15;;;;;;;6.20;2.70;;;8.80;1.00;;;;;;5025976;28;20554;-66
2023/04/12 01:45:42;;;;;;;7.47;2.20;;;8.90;1.00;;;;;;5045651;28;20270;-65
2023/04/12 01:48:11;;;;;;;12.17;2.73;;;8.90;1.00;;;;;;5028323;28;20216;-66
2023/04/12 01:51:03;;;;;;;9.43;2.80;;;8.90;1.00;;;;;;5015293;28;20750;-66
2023/04/12 01:53:33;;;;;;;11.07;2.40;;;8.90;1.00;;;;;;5014603;28;20303;-66
2023/04/12 01:56:07;;;;;;;11.67;2.50;;;9.00;1.00;;;;;;5050351;28;20192;-66
2023/04/12 01:58:36;;;;;;;8.30;2.33;;;9.00;1.00;;;;;;5025477;28;20196;-66
2023/04/12 02:01:04;;;;;;;7.50;2.37;;;9.00;1.00;;;;;;5003473;28;20192;-66
2023/04/12 02:03:33;;;;;;;10.10;2.37;;;9.10;1.00;;;;;;5027800;28;20549;-66
2023/04/12 02:06:02;;;;;;;9.43;2.17;;;9.20;1.00;;;;;;5033204;28;20206;-66
2023/04/12 02:08:29;;;;;;;10.63;2.40;;;9.30;1.00;;;;;;5032956;28;20203;-66
2023/04/12 02:10:56;;;;;;;7.90;2.57;;;9.30;1.00;;;;;;5011379;28;20227;-66
2023/04/12 02:13:24;;;;;;;5.13;2.20;;;9.40;1.00;;;;;;5019253;28;20212;-66
2023/04/12 02:15:55;;;;;;;10.23;2.47;;;9.40;1.00;;;;;;5023284;28;20194;-66
2023/04/12 02:18:23;;;;;;;6.53;2.07;;;9.50;1.00;;;;;;5031423;28;20727;-66
2023/04/12 02:20:50;;;;;;;7.17;2.07;;;9.50;1.00;;;;;;5017969;28;20200;-66
2023/04/12 02:23:17;;;;;;;6.63;1.80;;;9.50;1.00;;;;;;5030341;28;20214;-66
2023/04/12 02:25:45;;;;;;;11.87;2.40;;;9.50;1.00;;;;;;5019692;28;20192;-66
2023/04/12 02:28:14;;;;;;;3.80;1.87;;;9.50;1.00;;;;;;5040835;28;20219;-66
2023/04/12 02:30:41;;;;;;;6.77;1.80;;;9.50;1.00;;;;;;5016063;28;20203;-67
2023/04/12 02:33:10;;;;;;;5.47;1.67;;;9.40;1.00;;;;;;5013765;28;20197;-67
2023/04/12 02:35:39;;;;;;;3.43;1.93;;;9.50;1.00;;;;;;5031927;28;20196;-67
2023/04/12 02:38:10;;;;;;;5.87;1.93;;;9.40;1.00;;;;;;5022583;28;20208;-67
2023/04/12 02:40:40;;;;;;;5.30;1.83;;;9.40;1.00;;;;;;5038883;28;20239;-67
2023/04/12 02:43:11;;;;;;;5.13;2.00;;;9.50;1.00;;;;;;5030326;28;20200;-68
2023/04/12 02:45:42;;;;;;;6.33;2.10;;;9.40;1.00;;;;;;5029308;28;20238;-67
2023/04/12 02:48:10;;;;;;;6.67;2.00;;;9.40;1.00;;;;;;5013752;28;20195;-67
2023/04/12 02:50:38;;;;;;;5.07;1.80;;;9.30;1.00;;;;;;5045996;28;20250;-65
2023/04/12 02:53:12;;;;;;;7.50;2.00;;;9.40;1.00;;;;;;5019717;28;20186;-66
2023/04/12 02:55:43;;;;;;;6.30;2.00;;;9.40;1.00;;;;;;5014591;28;20259;-66
2023/04/12 02:58:11;;;;;;;10.27;2.00;;;9.40;1.00;;;;;;5026504;28;20192;-66
2023/04/12 03:00:48;;;;;;;4.17;1.73;;;9.30;1.00;;;;;;5030102;28;20203;-66
2023/04/12 03:03:20;;;;;;;5.73;2.00;;;9.30;1.00;;;;;;5023740;28;20707;-67
2023/04/12 03:05:52;;;;;;;5.77;1.73;;;9.30;1.00;;;;;;5031397;28;20191;-66
2023/04/12 03:08:20;;;;;;;7.03;2.13;;;9.30;1.00;;;;;;5032524;28;20198;-70
2023/04/12 03:10:54;;;;;;;6.63;2.10;;;9.30;1.00;;;;;;5015221;28;20246;-69
2023/04/12 03:13:22;;;;;;;3.77;1.57;;;9.30;1.00;;;;;;5030199;28;21124;-69
2023/04/12 03:15:56;;;;;;;9.93;2.50;;;9.20;1.00;;;;;;5038577;28;20205;-69
2023/04/12 03:18:30;;;;;;;5.73;1.90;;;9.20;1.00;;;;;;5039336;28;20184;-70
2023/04/12 03:20:57;;;;;;;4.77;1.87;;;9.30;1.00;;;;;;5028033;28;20257;-71
2023/04/12 03:23:24;;;;;;;6.33;2.33;;;9.30;1.00;;;;;;5020147;28;20203;-67
2023/04/12 03:26:02;;;;;;;6.70;1.87;;;9.20;1.00;;;;;;5020770;28;20192;-67
2023/04/12 03:28:31;;;;;;;6.40;2.20;;;9.10;1.00;;;;;;5030959;28;20195;-68
2023/04/12 03:31:00;;;;;;;5.23;2.00;;;9.10;1.00;;;;;;5027098;28;20245;-70
2023/04/12 03:33:40;;;;;;;8.90;2.00;;;9.10;1.00;;;;;;5011118;28;20281;-70
2023/04/12 03:36:17;;;;;;;6.53;2.17;;;9.10;1.00;;;;;;5027996;28;20751;-69
2023/04/12 03:38:48;;;;;;;8.10;2.37;;;9.10;1.00;;;;;;5022787;28;22122;-69
2023/04/12 03:41:15;;;;;;;3.93;1.80;;;9.10;1.00;;;;;;5034793;28;20188;-69
2023/04/12 03:43:42;;;;;;;7.70;2.20;;;9.00;1.00;;;;;;5045902;28;20679;-68
2023/04/12 03:46:16;;;;;;;4.20;2.00;;;9.00;1.00;;;;;;5014068;28;20802;-66
2023/04/12 03:48:49;;;;;;;4.30;1.90;;;8.90;1.00;;;;;;5021019;28;20612;-67
2023/04/12 03:51:20;;;;;;;4.53;2.00;;;8.90;1.00;;;;;;5011272;28;20439;-66
2023/04/12 03:53:48;;;;;;;6.40;2.47;;;8.80;1.00;;;;;;5031731;28;20281;-66
2023/04/12 03:56:15;;;;;;;4.67;1.80;;;8.80;1.00;;;;;;5029492;28;20299;-66
2023/04/12 03:58:46;;;;;;;6.87;1.63;;;8.70;1.00;;;;;;5049165;28;20188;-68
2023/04/12 04:01:16;;;;;;;5.63;1.93;;;8.70;1.00;;;;;;5013946;28;20196;-68
2023/04/12 04:03:44;;;;;;;6.93;2.37;;;8.70;1.00;;;;;;5028238;28;20223;-67
2023/04/12 04:06:19;;;;;;;4.30;1.70;;;8.70;1.00;;;;;;5023425;28;20218;-67
2023/04/12 04:08:46;;;;;;;7.63;1.87;;;8.60;1.00;;;;;;5029902;28;20262;-67
2023/04/12 04:11:14;;;;;;;5.83;2.00;;;8.70;1.00;;;;;;5033717;28;20322;-67
2023/04/12 04:13:46;;;;;;;4.90;1.90;;;8.60;1.00;;;;;;5027121;28;20227;-67
2023/04/12 04:16:18;;;;;;;7.13;2.13;;;8.70;1.00;;;;;;5021493;28;20607;-68
2023/04/12 04:18:45;;;;;;;6.67;2.83;;;8.60;1.00;;;;;;5045996;28;20194;-68
2023/04/12 04:21:15;;;;;;;5.53;2.07;;;8.60;1.00;;;;;;5022298;28;20206;-69
2023/04/12 04:23:44;;;;;;;6.60;1.97;;;8.60;1.00;;;;;;5016850;28;20200;-69
2023/04/12 04:26:12;;;;;;;5.80;2.30;;;8.60;1.00;;;;;;5025613;28;20532;-68
2023/04/12 04:28:46;;;;;;;8.77;2.40;;;8.60;1.00;;;;;;5018033;28;20191;-69
2023/04/12 04:31:17;;;;;;;4.07;2.23;;;8.60;1.00;;;;;;5011672;28;20651;-70
2023/04/12 04:33:49;;;;;;;5.37;2.13;;;8.60;1.00;;;;;;5027557;28;20199;-69
2023/04/12 04:36:19;;;;;;;6.03;2.00;;;8.70;1.00;;;;;;5026112;28;20207;-71
2023/04/12 04:38:51;;;;;;;3.70;1.87;;;8.70;1.00;;;;;;5023392;28;20188;-70
2023/04/12 04:41:38;;;;;;;3.27;1.63;;;8.70;1.00;;;;;;5025376;28;20195;-68
2023/04/12 04:44:09;;;;;;;6.47;1.70;;;8.70;1.00;;;;;;5025358;28;20245;-69
2023/04/12 04:46:41;;;;;;;6.73;1.73;;;8.70;1.00;;;;;;5023499;28;20196;-70
2023/04/12 04:49:09;;;;;;;4.60;1.90;;;8.70;1.00;;;;;;5037874;28;20206;-70
2023/04/12 04:51:36;;;;;;;3.87;1.73;;;8.80;1.00;;;;;;5029859;28;20226;-68
2023/04/12 04:54:03;;;;;;;1.67;1.40;;;8.80;1.00;;;;;;5026650;28;20306;-68
2023/04/12 04:56:32;;;;;;;4.00;1.80;;;8.80;1.00;;;;;;5029249;28;20781;-67
2023/04/12 04:59:01;;;;;;;4.67;1.60;;;8.80;1.00;;;;;;5029462;28;20192;-67
2023/04/12 05:01:30;;;;;;;3.93;1.73;;;8.80;1.00;;;;;;5034258;28;20482;-66
2023/04/12 05:04:01;;;;;;;5.10;1.60;;;8.70;1.00;;;;;;5027579;28;20330;-66
2023/04/12 05:06:28;;;;;;;3.57;1.80;;;8.70;1.00;;;;;;5026072;28;20191;-66
2023/04/12 05:08:57;;;;;;;4.57;1.80;;;8.70;1.00;;;;;;5033914;28;20187;-66
2023/04/12 05:11:26;;;;;;;3.60;1.60;;;8.70;1.00;;;;;;5031594;28;20311;-66
2023/04/12 05:13:53;;;;;;;3.47;1.73;;;8.70;1.00;;;;;;5026567;28;20666;-65
2023/04/12 05:16:20;;;;;;;2.93;1.30;;;8.70;1.00;;;;;;5022085;28;20216;-65
2023/04/12 05:18:47;;;;;;;3.20;1.27;;;8.80;1.00;;;;;;5020143;28;20877;-67
2023/04/12 05:21:14;;;;;;;3.97;1.70;;;8.80;1.00;;;;;;5035741;28;20196;-64
2023/04/12 05:23:45;;;;;;;4.50;1.30;;;8.80;1.00;;;;;;5024583;28;20196;-64
2023/04/12 05:26:12;;;;;;;1.97;1.10;;;8.80;1.00;;;;;;5013064;28;20191;-65
2023/04/12 05:28:44;;;;;;;2.03;1.40;;;8.80;1.00;;;;;;5034942;28;20195;-66
2023/04/12 05:31:11;;;;;;;2.60;1.33;;;8.90;1.00;;;;;;5032556;28;20195;-66
2023/04/12 05:33:38;;;;;;;3.23;1.30;;;8.90;1.00;;;;;;5030059;28;20191;-64
2023/04/12 05:36:06;;;;;;;2.87;1.50;;;8.90;1.00;;;;;;5033100;28;20349;-65
2023/04/12 05:38:33;;;;;;;2.50;1.20;;;8.90;1.00;;;;;;5029938;28;20276;-64
2023/04/12 05:41:05;;;;;;;1.47;1.20;;;8.80;1.00;;;;;;5041143;28;20438;-64
2023/04/12 05:43:33;;;;;;;4.17;1.60;;;8.80;1.00;;;;;;5031267;28;20195;-67
2023/04/12 05:46:01;;;;;;;1.20;1.10;;;8.80;1.00;;;;;;5026979;28;20264;-65
2023/04/12 05:48:29;;;;;;;3.80;1.43;;;8.80;1.00;;;;;;5034489;28;20187;-63
2023/04/12 05:51:01;;;;;;;2.73;1.40;;;8.80;1.00;;;;;;5028587;28;20196;-66
2023/04/12 05:53:31;;;;;;;1.80;1.30;;;8.80;1.00;;;;;;5027720;28;20548;-66
2023/04/12 05:56:02;;;;;;;1.10;1.00;;;8.80;1.00;;;;;;5045310;28;20215;-66
2023/04/12 05:58:29;;;;;;;2.87;1.30;;;8.90;1.00;;;;;;5028789;28;20183;-65
2023/04/12 06:00:57;;;;;;;3.80;1.33;;;8.90;1.00;;;;;;5033965;28;20703;-64
2023/04/12 06:03:25;;;;;;;2.23;1.00;;;8.80;1.00;;;;;;5033031;28;20215;-64
2023/04/12 06:05:57;;;;;;;1.83;1.20;;;8.80;1.00;;;;;;5037989;28;20211;-65
2023/04/12 06:08:28;;;;;;;3.40;1.30;;;8.80;1.00;;;;;;5033317;28;20220;-66
2023/04/12 06:10:55;;;;;;;3.60;1.43;;;8.80;1.00;;;;;;5011078;28;20232;-66
2023/04/12 06:13:22;;;;;;;5.53;1.60;;;8.70;1.00;;;;;;5033342;28;20742;-67
2023/04/12 06:15:49;;;;;;;3.67;1.20;;;8.60;1.00;;;;;;5049537;28;20199;-66
2023/04/12 06:18:17;;;;;;;1.30;1.10;;;8.50;1.00;;;;;;5023883;28;20203;-66
2023/04/12 06:20:44;;;;;;;1.90;1.17;;;8.40;1.00;;;;;;5042171;28;20291;-68
2023/04/12 06:23:12;;;;;;;3.30;1.30;;;8.40;1.00;;;;;;5026597;28;20194;-69
2023/04/12 06:25:39;;;;;;;2.83;1.37;;;8.30;1.00;;;;;;5039726;28;20202;-68
2023/04/12 06:28:07;;;;;;;2.83;1.47;;;8.20;1.00;;;;;;5009784;28;20215;-70
2023/04/12 06:30:41;;;;;;;1.67;1.20;;;8.10;1.00;;;;;;5030667;28;20219;-70
2023/04/12 06:33:08;;;;;;;1.93;1.13;;;8.00;1.00;;;;;;5044186;28;20191;-70
2023/04/12 06:35:35;;;;;;;3.33;1.50;;;8.00;1.00;;;;;;5030274;28;20242;-69
2023/04/12 06:38:02;;;;;;;3.50;1.27;;;8.00;1.00;;;;;;5019555;28;20203;-68
2023/04/12 06:40:29;;;;;;;2.67;1.03;;;8.00;1.00;;;;;;5050374;28;20192;-70
2023/04/12 06:42:56;;;;;;;2.10;1.17;;;8.00;1.00;;;;;;5012231;28;20740;-70
2023/04/12 06:45:23;;;;;;;1.50;1.10;;;7.90;1.00;;;;;;5043021;28;20226;-69
2023/04/12 06:47:50;;;;;;;1.80;1.27;;;7.90;1.00;;;;;;5044320;28;20207;-71
2023/04/12 06:50:17;;;;;;;1.60;1.10;;;7.90;1.00;;;;;;5036341;28;20188;-71
2023/04/12 06:52:47;;;;;;;1.07;0.93;;;7.90;99.90;;;;;;5026916;28;20231;-71
2023/04/12 06:55:15;;;;;;;2.07;1.20;;;8.00;1.00;;;;;;5048369;28;20247;-69
2023/04/12 06:57:43;;;;;;;3.03;1.20;;;8.00;1.00;;;;;;5020898;28;20196;-71
2023/04/12 07:00:11;;;;;;;1.57;1.10;;;8.00;1.00;;;;;;5047082;28;20183;-71
2023/04/12 07:02:38;;;;;;;2.37;1.27;;;8.10;1.00;;;;;;5043093;28;20667;-70
2023/04/12 07:05:05;;;;;;;1.63;1.10;;;8.10;1.00;;;;;;5047517;28;20196;-71
2023/04/12 07:07:32;;;;;;;9.23;1.70;;;8.00;1.00;;;;;;5030995;28;20234;-70
2023/04/12 07:09:59;;;;;;;1.50;1.10;;;8.00;1.00;;;;;;5047942;28;20730;-71
2023/04/12 07:12:26;;;;;;;3.73;1.23;;;8.00;1.00;;;;;;5006659;28;20223;-72
2023/04/12 07:14:53;;;;;;;4.40;1.30;;;7.80;99.90;;;;;;5046833;28;20237;-71
2023/04/12 07:17:20;;;;;;;1.87;1.00;;;7.70;99.90;;;;;;5030014;28;20206;-71
2023/04/12 07:19:49;;;;;;;4.23;1.37;;;7.60;99.90;;;;;;5043890;28;20203;-71
2023/04/12 07:22:16;;;;;;;2.87;1.60;;;7.60;99.90;;;;;;5044475;28;20211;-71
2023/04/12 07:24:43;;;;;;;0.40;0.40;;;7.60;99.90;;;;;;5038558;28;20199;-73
2023/04/12 07:27:10;;;;;;;0.40;0.40;;;7.50;99.90;;;;;;5030097;28;20203;-71
2023/04/12 07:29:37;;;;;;;0.40;0.40;;;7.60;99.90;;;;;;5023108;28;20200;-69
2023/04/12 07:32:04;;;;;;;0.40;0.40;;;7.60;99.90;;;;;;5021795;28;20374;-72
2023/04/12 07:34:31;;;;;;;0.40;0.40;;;7.60;99.90;;;;;;5027803;28;20434;-72
2023/04/12 07:36:59;;;;;;;0.40;0.40;;;7.60;99.90;;;;;;5031337;28;20238;-71
2023/04/12 07:39:28;;;;;;;0.40;0.40;;;7.70;99.90;;;;;;5026072;28;20196;-71
2023/04/12 07:41:55;;;;;;;0.40;0.40;;;7.70;99.90;;;;;;5041812;28;20240;-71
2023/04/12 07:44:22;;;;;;;0.40;0.40;;;7.80;99.90;;;;;;5048694;28;20188;-70
2023/04/12 07:46:50;;;;;;;0.40;0.40;;;7.90;99.90;;;;;;5025741;28;20187;-71
2023/04/12 07:49:17;;;;;;;0.40;0.40;;;7.90;99.90;;;;;;5040431;28;20563;-71
2023/04/12 07:51:43;;;;;;;0.40;0.40;;;8.00;99.90;;;;;;5045255;28;20191;-70
2023/04/12 07:54:12;;;;;;;0.83;0.83;;;8.00;99.90;;;;;;5017143;28;20204;-70
2023/04/12 07:56:39;;;;;;;0.40;0.40;;;8.00;99.90;;;;;;5025132;28;20750;-69
2023/04/12 07:59:06;;;;;;;0.40;0.40;;;8.10;99.90;;;;;;5037529;28;20246;-71
2023/04/12 08:01:33;;;;;;;0.40;0.40;;;8.00;99.90;;;;;;5022860;28;20295;-70
2023/04/12 08:04:00;;;;;;;0.40;0.40;;;8.00;99.90;;;;;;5046694;28;20203;-70
2023/04/12 08:06:28;;;;;;;0.40;0.40;;;8.10;99.90;;;;;;5044877;28;20753;-69
2023/04/12 08:08:59;;;;;;;0.47;0.47;;;8.20;99.90;;;;;;5001265;28;22319;-71
2023/04/12 08:11:26;;;;;;;0.43;0.43;;;8.30;99.90;;;;;;5022989;28;20309;-71
2023/04/12 08:13:53;;;;;;;0.40;0.40;;;8.30;99.90;;;;;;5048669;28;20675;-70
2023/04/12 08:16:20;;;;;;;0.50;0.50;;;8.30;99.90;;;;;;5028230;28;20310;-70
2023/04/12 08:18:47;;;;;;;0.40;0.40;;;8.30;1.00;;;;;;5015074;28;20192;-71
2023/04/12 08:21:14;;;;;;;0.50;0.50;;;8.40;1.00;;;;;;5044696;28;20240;-71
2023/04/12 08:23:41;;;;;;;0.40;0.40;;;8.50;1.00;;;;;;5027334;28;20199;-71
2023/04/12 08:26:08;;;;;;;0.40;0.40;;;8.60;1.00;;;;;;5046301;28;20230;-70
2023/04/12 08:28:35;;;;;;;0.40;0.40;;;8.80;99.90;;;;;;5040612;28;20640;-71
2023/04/12 08:31:06;;;;;;;0.40;0.40;;;9.00;1.00;;;;;;5044982;28;20195;-71
2023/04/12 08:33:33;;;;;;;0.40;0.40;;;9.00;99.90;;;;;;5026163;28;20238;-71
2023/04/12 08:36:00;;;;;;;0.40;0.40;;;9.10;1.00;;;;;;5038115;28;20300;-71
2023/04/12 08:38:27;;;;;;;0.40;0.40;;;9.20;81.60;;;;;;5023918;28;20195;-72
2023/04/12 08:41:11;;;;;;;0.40;0.40;;;9.10;1.00;;;;;;5041528;28;20196;-71
2023/04/12 08:43:45;;;;;;;0.40;0.40;;;9.10;99.90;;;;;;5042999;28;20195;-72
2023/04/12 08:46:16;;;;;;;0.40;0.40;;;9.10;1.00;;;;;;5020011;28;20202;-71
2023/04/12 08:48:45;;;;;;;0.40;0.40;;;9.20;1.00;;;;;;5029184;28;20202;-73
2023/04/12 08:51:14;;;;;;;0.40;0.40;;;9.20;1.00;;;;;;5031168;28;20249;-71
2023/04/12 08:53:42;;;;;;;0.40;0.40;;;9.20;1.00;;;;;;5021171;28;20196;-73
2023/04/12 08:56:11;;;;;;;0.40;0.40;;;9.20;1.00;;;;;;5040277;28;20220;-74
2023/04/12 08:58:40;;;;;;;0.40;0.40;;;9.20;1.00;;;;;;5029981;28;20297;-73
2023/04/12 09:01:14;;;;;;;0.40;0.40;;;9.20;1.00;;;;;;5044413;28;20270;-73
2023/04/12 09:03:43;;;;;;;0.40;0.40;;;9.30;1.00;;;;;;5042154;28;20245;-72
2023/04/12 09:06:11;;;;;;;0.40;0.40;;;9.30;99.90;;;;;;5036914;28;20211;-73
2023/04/12 09:08:55;;;;;;;0.40;0.40;;;9.30;99.90;;;;;;5038976;28;20963;-72
2023/04/12 09:11:24;;;;;;;0.40;0.40;;;9.40;99.90;;;;;;5042471;28;20318;-72
2023/04/12 09:13:54;;;;;;;0.40;0.40;;;9.50;99.90;;;;;;5023797;28;20199;-69
2023/04/12 09:16:34;;;;;;;0.40;0.40;;;9.50;99.90;;;;;;5039048;28;20223;-72
2023/04/12 09:19:02;;;;;;;0.40;0.40;;;9.70;1.00;;;;;;5021516;28;20245;-69
2023/04/12 09:21:31;;;;;;;0.40;0.40;;;9.90;1.00;;;;;;5048752;28;20920;-72
2023/04/12 09:24:10;;;;;;;0.40;0.40;;;10.10;1.00;;;;;;5018377;28;20204;-73
2023/04/12 09:26:40;;;;;;;0.43;0.43;;;10.40;1.00;;;;;;5018973;28;20196;-71
2023/04/12 09:29:24;;;;;;;0.40;0.40;;;10.50;31.50;;;;;;5045211;28;20196;-72
2023/04/12 09:31:59;;;;;;;0.40;0.40;;;10.70;87.60;;;;;;5041995;28;20202;-72
2023/04/12 09:34:27;;;;;;;0.40;0.40;;;10.50;1.00;;;;;;5015505;28;20245;-72
2023/04/12 09:36:54;;;;;;;0.40;0.40;;;10.40;1.00;;;;;;5043748;28;20206;-73
2023/04/12 09:39:34;;;;;;;0.40;0.40;;;10.50;1.00;;;;;;5012406;28;20197;-74
2023/04/12 09:42:08;;;;;;;0.40;0.40;;;10.50;1.00;;;;;;5045465;28;20187;-73
2023/04/12 09:44:56;;;;;;;0.40;0.40;;;10.50;1.00;;;;;;5022500;28;20726;-72
2023/04/12 09:47:39;;;;;;;0.40;0.40;;;10.50;1.00;;;;;;5024596;28;20195;-72
2023/04/12 09:50:08;;;;;;;0.47;0.47;;;10.40;99.90;;;;;;5044458;28;20546;-73
2023/04/12 09:52:37;;;;;;;0.40;0.40;;;10.50;99.90;;;;;;5046751;28;20202;-73
2023/04/12 09:55:09;;;;;;;0.40;0.40;;;10.60;68.50;;;;;;5047126;28;20554;-73
2023/04/12 09:57:43;;;;;;;0.40;0.40;;;10.80;1.00;;;;;;5030706;28;20219;-73
2023/04/12 10:00:22;;;;;;;0.40;0.40;;;10.90;1.00;;;;;;5027699;28;20286;-73
2023/04/12 10:02:50;;;;;;;0.40;0.40;;;11.00;1.00;;;;;;5046431;28;20216;-72
2023/04/12 10:05:22;;;;;;;0.40;0.40;;;10.90;1.00;;;;;;5050473;28;20196;-73
2023/04/12 10:07:50;;;;;;;0.40;0.40;;;10.80;1.00;;;;;;5044756;28;20819;-73
2023/04/12 10:10:18;;;;;;;0.40;0.40;;;10.90;1.00;;;;;;5025261;28;20235;-71
2023/04/12 10:12:47;;;;;;;0.40;0.40;;;10.90;1.00;;;;;;5021245;28;20181;-73
2023/04/12 10:15:20;;;;;;;0.40;0.40;;;10.80;1.00;;;;;;5046460;28;20208;-73
2023/04/12 10:17:56;;;;;;;0.40;0.40;;;10.90;1.00;;;;;;5025161;28;20494;-74
2023/04/12 10:20:23;;;;;;;0.40;0.40;;;11.00;1.00;;;;;;5046425;28;20662;-72
2023/04/12 10:22:56;;;;;;;0.40;0.40;;;11.10;1.00;;;;;;5043077;28;20187;-73
2023/04/12 10:25:26;;;;;;;0.40;0.40;;;11.30;1.00;;;;;;5023985;28;20192;-73
2023/04/12 10:27:53;;;;;;;0.30;0.30;;;11.70;1.00;;;;;;5040199;28;20215;-72
2023/04/12 10:30:40;;;;;;;0.40;0.40;;;12.00;1.00;;;;;;5029307;28;20746;-72
2023/04/12 10:33:12;;;;;;;0.40;0.40;;;12.60;1.00;;;;;;5037950;28;20199;-76
2023/04/12 10:36:02;;;;;;;0.40;0.40;;;13.10;1.00;;;;;;5031353;28;20203;-73
2023/04/12 10:38:36;;;;;;;0.40;0.40;;;12.90;1.00;;;;;;5044051;28;20196;-72
2023/04/12 10:41:13;;;;;;;0.30;0.30;;;13.00;1.00;;;;;;5013605;28;20548;-72
2023/04/12 10:43:45;;;;;;;0.30;0.30;;;13.70;1.00;;;;;;5048748;28;20532;-72
2023/04/12 10:46:37;;;;;;;0.40;0.40;;;13.40;1.00;;;;;;5041239;28;20204;-72
2023/04/12 10:49:09;;;;;;;0.40;0.40;;;12.80;1.00;;;;;;5045699;28;20191;-72
2023/04/12 10:51:36;;;;;;;0.40;0.40;;;12.40;1.00;;;;;;5040507;28;20183;-72
2023/04/12 10:54:07;;;;;;;0.30;0.30;;;12.60;1.00;;;;;;5024946;28;20207;-71
2023/04/12 10:56:39;;;;;;;0.40;0.40;;;12.80;1.00;;;;;;5041488;28;20688;-72
2023/04/12 10:59:13;;;;;;;1.23;1.23;;;13.30;1.00;;;;;;5023631;28;20677;-70
2023/04/12 11:02:09;;;;;;;0.30;0.30;;;14.40;1.00;;;;;;5021956;28;20282;-69
2023/04/12 11:04:37;;;;;;;0.30;0.30;;;14.60;1.00;;;;;;5014587;28;20200;-71
2023/04/12 11:07:12;;;;;;;0.30;0.30;;;15.10;1.00;;;;;;5042286;28;20179;-69
2023/04/12 11:10:00;;;;;;;0.30;0.30;;;15.50;1.00;;;;;;5042182;28;20234;-69
2023/04/12 11:12:32;;;;;;;0.30;0.30;;;15.10;1.00;;;;;;5021022;28;20195;-70
2023/04/12 11:15:00;;;;;;;0.30;0.30;;;14.70;1.00;;;;;;5025938;28;20659;-71
2023/04/12 11:17:41;;;;;;;0.30;0.30;;;15.00;1.00;;;;;;5045780;28;20623;-71
2023/04/12 11:20:14;;;;;;;0.30;0.30;;;15.10;1.00;;;;;;5041482;28;20267;-69
2023/04/12 11:22:41;;;;;;;0.30;0.30;;;14.80;1.00;;;;;;5027091;28;20246;-70
2023/04/12 11:25:08;;;;;;;0.30;0.30;;;15.60;1.00;;;;;;5036794;28;20218;-69
2023/04/12 11:27:36;;;;;;;0.30;0.30;;;15.70;1.00;;;;;;5047740;28;20196;-71
2023/04/12 11:30:04;;;;;;;0.30;0.30;;;15.80;1.00;;;;;;5037784;28;20198;-71
2023/04/12 11:32:35;;;;;;;0.30;0.30;;;15.40;1.00;;;;;;5026207;28;20200;-70
2023/04/12 11:35:02;;;;;;;0.20;0.20;;;14.80;1.00;;;;;;5026035;28;20562;-70
2023/04/12 11:37:34;;;;;;;0.40;0.40;;;14.60;1.00;;;;;;5026826;28;20211;-70
2023/04/12 11:40:04;;;;;;;0.33;0.33;;;14.40;1.00;;;;;;5029342;28;20664;-69
2023/04/12 11:42:32;;;;;;;0.40;0.40;;;14.10;1.00;;;;;;5026784;28;20191;-71
2023/04/12 11:44:59;;;;;;;0.40;0.40;;;14.00;1.00;;;;;;5050409;28;20188;-71
2023/04/12 11:47:40;;;;;;;0.30;0.30;;;14.30;1.00;;;;;;5043496;28;20206;-70
2023/04/12 11:50:08;;;;;;;0.40;0.40;;;14.40;1.00;;;;;;5043807;28;20207;-71
2023/04/12 11:52:35;;;;;;;0.30;0.30;;;14.20;1.00;;;;;;5025414;28;20204;-70
2023/04/12 11:55:07;;;;;;;0.40;0.40;;;13.70;1.00;;;;;;5037713;28;20191;-69
2023/04/12 11:57:34;;;;;;;0.40;0.40;;;13.20;1.00;;;;;;5024193;28;20219;-70
2023/04/12 12:00:05;;;;;;;0.40;0.40;;;13.00;1.00;;;;;;5047765;28;20279;-70
2023/04/12 12:02:38;;;;;;;0.40;0.40;;;13.00;1.00;;;;;;5029637;28;20211;-71
2023/04/12 12:05:22;;;;;;;0.40;0.40;;;12.90;1.00;;;;;;5016965;28;20270;-70
2023/04/12 12:07:51;;;;;;;0.40;0.40;;;12.80;1.00;;;;;;5028915;28;20215;-71
2023/04/12 12:10:18;;;;;;;0.40;0.40;;;12.80;1.00;;;;;;5007979;28;20904;-70
2023/04/12 12:13:10;;;;;;;0.30;0.30;;;12.80;1.00;;;;;;5020667;28;20204;-71
2023/04/12 12:15:38;;;;;;;0.40;0.40;;;12.80;1.00;;;;;;5020880;28;20864;-70
2023/04/12 12:18:08;;;;;;;0.40;0.40;;;12.80;1.00;;;;;;5023481;28;20259;-71
2023/04/12 12:20:51;;;;;;;0.40;0.40;;;12.50;1.00;;;;;;5027811;28;20196;-71
2023/04/12 12:23:31;;;;;;;0.40;0.40;;;12.10;1.00;;;;;;4984677;28;20281;-71
2023/04/12 12:25:59;;;;;;;0.40;0.40;;;12.00;1.00;;;;;;5019817;28;20200;-70
2023/04/12 12:28:52;;;;;;;0.30;0.30;;;12.20;1.00;;;;;;5020232;28;20707;-70
2023/04/12 12:31:22;;;;;;;0.40;0.40;;;12.30;1.00;;;;;;5021229;28;20265;-70
2023/04/12 12:33:53;;;;;;;0.30;0.30;;;12.80;1.00;;;;;;5021063;28;20283;-70
2023/04/12 12:36:20;;;;;;;0.30;0.30;;;14.00;1.00;;;;;;5016637;28;20643;-70
2023/04/12 12:38:48;;;;;;;0.40;0.40;;;15.20;1.00;;;;;;5019207;28;20204;-69
2023/04/12 12:41:20;;;;;;;0.30;0.30;;;15.50;1.00;;;;;;5018209;28;20668;-70
2023/04/12 12:43:49;;;;;;;0.30;0.30;;;15.50;1.00;;;;;;5003724;28;20306;-69
2023/04/12 12:46:17;;;;;;;0.38;0.38;;;15.00;1.00;;;;;;4986835;28;20282;-69
2023/04/12 12:48:45;;;;;;;0.30;0.30;;;14.70;1.00;;;;;;5019772;28;20195;-70
2023/04/12 12:51:16;;;;;;;0.30;0.30;;;14.80;1.00;;;;;;5002011;28;20762;-69
2023/04/12 12:53:44;;;;;;;0.30;0.30;;;14.80;1.00;;;;;;5002869;28;20196;-70
2023/04/12 12:56:12;;;;;;;0.30;0.30;;;15.10;1.00;;;;;;5018317;28;20220;-69
2023/04/12 12:58:40;;;;;;;0.30;0.30;;;15.30;1.00;;;;;;5020954;28;20566;-70
2023/04/12 13:01:07;;;;;;;0.30;0.30;;;15.10;1.00;;;;;;5002470;28;20195;-70
2023/04/12 13:03:34;;;;;;;0.30;0.30;;;15.10;1.00;;;;;;5019404;28;20223;-70
2023/04/12 13:06:02;;;;;;;0.30;0.30;;;15.00;1.00;;;;;;5001201;28;20676;-69
2023/04/12 13:08:33;;;;;;;0.30;0.30;;;14.60;1.00;;;;;;4982989;28;20201;-72
2023/04/12 13:11:00;;;;;;;0.30;0.30;;;14.60;1.00;;;;;;5028614;28;20291;-69
2023/04/12 13:13:28;;;;;;;0.40;0.40;;;13.90;1.00;;;;;;5022730;28;20667;-68
2023/04/12 13:15:55;;;;;;;0.40;0.40;;;13.20;1.00;;;;;;5023832;28;20874;-69
2023/04/12 13:18:22;;;;;;;0.37;0.37;;;12.70;1.00;;;;;;5038235;28;21421;-69
2023/04/12 13:20:49;;;;;;;0.40;0.40;;;12.40;1.00;;;;;;5040057;28;20188;-68